sensor_id;sensor_type;location;lat;lon;timestamp;pressure;altitude;pressure_sealevel;temperature;humidity
60019;BME280;45870;42.528;26.740;2023-04-22T00:00:50;99447.94;;;17.28;42.85
60019;BME280;45870;42.528;26.740;2023-04-22T00:03:16;99403.47;;;16.94;42.48
60019;BME280;45870;42.528;26.740;2023-04-22T00:05:41;99442.88;;;17.17;42.61
60019;BME280;45870;42.528;26.740;2023-04-22T00:08:09;99445.22;;;17.28;43.08
60019;BME280;45870;42.528;26.740;2023-04-22T00:10:34;99450.78;;;17.57;42.98
60019;BME280;45870;42.528;26.740;2023-04-22T00:13:00;99418.00;;;17.23;43.16
60019;BME280;45870;42.528;26.740;2023-04-22T00:15:28;99442.00;;;17.21;44.04
60019;BME280;45870;42.528;26.740;2023-04-22T00:17:54;99450.16;;;17.26;44.19
60019;BME280;45870;42.528;26.740;2023-04-22T00:20:19;99416.72;;;17.11;44.15
60019;BME280;45870;42.528;26.740;2023-04-22T00:22:48;99440.22;;;17.40;43.92
60019;BME280;45870;42.528;26.740;2023-04-22T00:25:15;99442.88;;;17.51;43.03
60019;BME280;45870;42.528;26.740;2023-04-22T00:27:40;99426.28;;;17.42;43.15
60019;BME280;45870;42.528;26.740;2023-04-22T00:30:06;99433.63;;;16.64;44.64
60019;BME280;45870;42.528;26.740;2023-04-22T00:32:32;99429.41;;;16.12;46.50
60019;BME280;45870;42.528;26.740;2023-04-22T00:34:58;99418.50;;;16.22;46.69
60019;BME280;45870;42.528;26.740;2023-04-22T00:37:24;99414.69;;;16.87;44.90
60019;BME280;45870;42.528;26.740;2023-04-22T00:39:49;99417.38;;;16.92;44.83
60019;BME280;45870;42.528;26.740;2023-04-22T00:42:16;99412.22;;;16.86;45.17
60019;BME280;45870;42.528;26.740;2023-04-22T00:44:41;99431.63;;;16.84;45.22
60019;BME280;45870;42.528;26.740;2023-04-22T00:47:11;99432.44;;;16.85;45.10
60019;BME280;45870;42.528;26.740;2023-04-22T00:49:36;99431.38;;;15.91;46.95
60019;BME280;45870;42.528;26.740;2023-04-22T00:52:03;99441.47;;;15.76;47.43
60019;BME280;45870;42.528;26.740;2023-04-22T00:54:29;99436.72;;;13.76;52.55
60019;BME280;45870;42.528;26.740;2023-04-22T00:56:56;99447.41;;;15.17;49.54
60019;BME280;45870;42.528;26.740;2023-04-22T00:59:24;99449.69;;;14.06;51.80
60019;BME280;45870;42.528;26.740;2023-04-22T01:01:51;99415.50;;;14.67;50.54
60019;BME280;45870;42.528;26.740;2023-04-22T01:04:16;99440.31;;;16.12;46.11
60019;BME280;45870;42.528;26.740;2023-04-22T01:06:46;99442.50;;;16.10;45.66
60019;BME280;45870;42.528;26.740;2023-04-22T01:09:12;99431.38;;;15.91;45.48
60019;BME280;45870;42.528;26.740;2023-04-22T01:11:38;99414.41;;;14.68;47.75
60019;BME280;45870;42.528;26.740;2023-04-22T01:14:03;99442.28;;;14.38;48.64
60019;BME280;45870;42.528;26.740;2023-04-22T01:16:30;99440.63;;;15.20;47.21
60019;BME280;45870;42.528;26.740;2023-04-22T01:18:58;99445.19;;;14.94;46.56
60019;BME280;45870;42.528;26.740;2023-04-22T01:21:26;99431.63;;;15.14;46.15
60019;BME280;45870;42.528;26.740;2023-04-22T01:23:52;99441.44;;;15.35;44.87
60019;BME280;45870;42.528;26.740;2023-04-22T01:26:18;99438.69;;;15.20;44.50
60019;BME280;45870;42.528;26.740;2023-04-22T01:28:44;99439.31;;;15.58;43.92
60019;BME280;45870;42.528;26.740;2023-04-22T01:31:10;99432.47;;;15.20;44.92
60019;BME280;45870;42.528;26.740;2023-04-22T01:33:37;99428.38;;;15.12;44.71
60019;BME280;45870;42.528;26.740;2023-04-22T01:36:03;99419.88;;;14.78;45.50
60019;BME280;45870;42.528;26.740;2023-04-22T01:38:28;99423.19;;;14.90;45.33
60019;BME280;45870;42.528;26.740;2023-04-22T01:40:58;99404.41;;;14.84;45.01
60019;BME280;45870;42.528;26.740;2023-04-22T01:43:24;99363.59;;;14.48;45.10
60019;BME280;45870;42.528;26.740;2023-04-22T01:45:50;99414.72;;;14.77;45.23
60019;BME280;45870;42.528;26.740;2023-04-22T01:48:16;99418.56;;;14.96;44.70
60019;BME280;45870;42.528;26.740;2023-04-22T01:50:41;99411.47;;;14.85;44.40
60019;BME280;45870;42.528;26.740;2023-04-22T01:53:07;99401.47;;;15.06;43.12
60019;BME280;45870;42.528;26.740;2023-04-22T01:55:33;99414.59;;;14.41;44.80
60019;BME280;45870;42.528;26.740;2023-04-22T01:58:02;99405.38;;;14.47;44.61
60019;BME280;45870;42.528;26.740;2023-04-22T02:00:28;99400.50;;;14.49;44.23
60019;BME280;45870;42.528;26.740;2023-04-22T02:02:54;99407.72;;;14.29;44.84
60019;BME280;45870;42.528;26.740;2023-04-22T02:05:19;99405.25;;;14.22;45.64
60019;BME280;45870;42.528;26.740;2023-04-22T02:07:45;99340.59;;;14.09;46.34
60019;BME280;45870;42.528;26.740;2023-04-22T02:10:11;99401.16;;;14.97;45.60
60019;BME280;45870;42.528;26.740;2023-04-22T02:12:37;99395.47;;;15.14;46.51
60019;BME280;45870;42.528;26.740;2023-04-22T02:15:03;99403.09;;;15.37;45.64
60019;BME280;45870;42.528;26.740;2023-04-22T02:17:29;99400.09;;;15.28;45.37
60019;BME280;45870;42.528;26.740;2023-04-22T02:19:54;99401.13;;;14.15;46.58
60019;BME280;45870;42.528;26.740;2023-04-22T02:22:21;99408.88;;;13.86;49.66
60019;BME280;45870;42.528;26.740;2023-04-22T02:24:47;99410.41;;;14.96;45.73
60019;BME280;45870;42.528;26.740;2023-04-22T02:27:13;99401.19;;;15.47;45.32
60019;BME280;45870;42.528;26.740;2023-04-22T02:29:38;99405.25;;;15.10;45.09
60019;BME280;45870;42.528;26.740;2023-04-22T02:32:04;99381.53;;;14.60;45.20
60019;BME280;45870;42.528;26.740;2023-04-22T02:34:30;99414.44;;;14.73;45.22
60019;BME280;45870;42.528;26.740;2023-04-22T02:36:55;99410.53;;;14.39;45.19
60019;BME280;45870;42.528;26.740;2023-04-22T02:39:21;99415.56;;;14.25;45.86
60019;BME280;45870;42.528;26.740;2023-04-22T02:41:46;99420.22;;;14.25;46.07
60019;BME280;45870;42.528;26.740;2023-04-22T02:44:12;99430.47;;;13.76;48.35
60019;BME280;45870;42.528;26.740;2023-04-22T02:46:38;99423.69;;;14.82;45.51
60019;BME280;45870;42.528;26.740;2023-04-22T02:49:03;99417.59;;;14.45;46.40
60019;BME280;45870;42.528;26.740;2023-04-22T02:51:29;99428.88;;;14.94;44.92
60019;BME280;45870;42.528;26.740;2023-04-22T02:53:57;99419.66;;;15.00;44.79
60019;BME280;45870;42.528;26.740;2023-04-22T02:56:22;99420.16;;;14.92;44.87
60019;BME280;45870;42.528;26.740;2023-04-22T02:58:48;99423.41;;;14.74;44.75
60019;BME280;45870;42.528;26.740;2023-04-22T03:01:14;99422.78;;;14.57;44.84
60019;BME280;45870;42.528;26.740;2023-04-22T03:03:39;99420.88;;;14.42;44.94
60019;BME280;45870;42.528;26.740;2023-04-22T03:06:05;99421.78;;;14.83;43.56
60019;BME280;45870;42.528;26.740;2023-04-22T03:08:31;99417.69;;;14.75;43.44
60019;BME280;45870;42.528;26.740;2023-04-22T03:10:56;99414.69;;;14.72;43.53
60019;BME280;45870;42.528;26.740;2023-04-22T03:13:22;99421.16;;;14.45;44.43
60019;BME280;45870;42.528;26.740;2023-04-22T03:15:47;99413.00;;;14.45;44.58
60019;BME280;45870;42.528;26.740;2023-04-22T03:18:13;99419.34;;;14.76;43.96
60019;BME280;45870;42.528;26.740;2023-04-22T03:20:39;99413.31;;;14.64;44.47
60019;BME280;45870;42.528;26.740;2023-04-22T03:23:04;99419.56;;;14.65;44.87
60019;BME280;45870;42.528;26.740;2023-04-22T03:25:31;99421.78;;;14.83;44.98
60019;BME280;45870;42.528;26.740;2023-04-22T03:27:57;99418.28;;;14.87;45.36
60019;BME280;45870;42.528;26.740;2023-04-22T03:30:23;99424.53;;;15.03;44.91
60019;BME280;45870;42.528;26.740;2023-04-22T03:32:48;99419.44;;;15.62;43.39
60019;BME280;45870;42.528;26.740;2023-04-22T03:35:14;99430.28;;;15.42;44.57
60019;BME280;45870;42.528;26.740;2023-04-22T03:37:42;99447.50;;;14.03;47.29
60019;BME280;45870;42.528;26.740;2023-04-22T03:40:08;99431.06;;;14.87;47.63
60019;BME280;45870;42.528;26.740;2023-04-22T03:42:34;99450.47;;;14.54;48.20
60019;BME280;45870;42.528;26.740;2023-04-22T03:45:00;99447.94;;;15.09;48.86
60019;BME280;45870;42.528;26.740;2023-04-22T03:47:25;99459.72;;;15.75;46.61
60019;BME280;45870;42.528;26.740;2023-04-22T03:49:51;99466.16;;;15.24;45.42
60019;BME280;45870;42.528;26.740;2023-04-22T03:52:17;99474.38;;;14.52;46.76
60019;BME280;45870;42.528;26.740;2023-04-22T03:54:42;99463.16;;;15.20;44.99
60019;BME280;45870;42.528;26.740;2023-04-22T03:57:08;99479.97;;;14.97;45.81
60019;BME280;45870;42.528;26.740;2023-04-22T03:59:33;99452.28;;;15.20;45.07
60019;BME280;45870;42.528;26.740;2023-04-22T04:01:59;99474.91;;;15.41;44.68
60019;BME280;45870;42.528;26.740;2023-04-22T04:04:25;99489.91;;;15.69;44.71
60019;BME280;45870;42.528;26.740;2023-04-22T04:06:54;99491.72;;;13.67;49.23
60019;BME280;45870;42.528;26.740;2023-04-22T04:09:20;99492.38;;;13.79;49.12
60019;BME280;45870;42.528;26.740;2023-04-22T04:11:45;99452.13;;;14.55;47.08
60019;BME280;45870;42.528;26.740;2023-04-22T04:14:11;99482.81;;;15.93;46.94
60019;BME280;45870;42.528;26.740;2023-04-22T04:16:36;99505.66;;;17.45;45.66
60019;BME280;45870;42.528;26.740;2023-04-22T04:19:02;99506.47;;;17.51;44.20
60019;BME280;45870;42.528;26.740;2023-04-22T04:21:28;99506.72;;;17.55;43.61
60019;BME280;45870;42.528;26.740;2023-04-22T04:23:54;99483.75;;;16.63;43.67
60019;BME280;45870;42.528;26.740;2023-04-22T04:26:19;99506.50;;;16.97;42.60
60019;BME280;45870;42.528;26.740;2023-04-22T04:28:45;99504.97;;;16.76;43.17
60019;BME280;45870;42.528;26.740;2023-04-22T04:31:11;99499.75;;;16.79;43.74
60019;BME280;45870;42.528;26.740;2023-04-22T04:33:37;99504.91;;;16.91;43.58
60019;BME280;45870;42.528;26.740;2023-04-22T04:36:03;99512.81;;;17.36;43.06
60019;BME280;45870;42.528;26.740;2023-04-22T04:38:29;99507.69;;;18.03;41.65
60019;BME280;45870;42.528;26.740;2023-04-22T04:40:55;99507.19;;;18.29;40.99
60019;BME280;45870;42.528;26.740;2023-04-22T04:43:21;99517.03;;;18.78;40.44
60019;BME280;45870;42.528;26.740;2023-04-22T04:45:50;99509.84;;;18.34;41.52
60019;BME280;45870;42.528;26.740;2023-04-22T04:48:17;99428.81;;;18.91;39.25
60019;BME280;45870;42.528;26.740;2023-04-22T04:50:44;99523.28;;;19.95;38.45
60019;BME280;45870;42.528;26.740;2023-04-22T04:53:10;99519.09;;;20.17;36.79
60019;BME280;45870;42.528;26.740;2023-04-22T04:55:36;99524.09;;;22.09;35.22
60019;BME280;45870;42.528;26.740;2023-04-22T04:58:02;99468.53;;;23.77;32.67
60019;BME280;45870;42.528;26.740;2023-04-22T05:00:28;99520.25;;;23.80;31.26
60019;BME280;45870;42.528;26.740;2023-04-22T05:02:54;99518.84;;;23.00;32.22
60019;BME280;45870;42.528;26.740;2023-04-22T05:05:20;99520.56;;;23.70;31.20
60019;BME280;45870;42.528;26.740;2023-04-22T05:07:45;99516.09;;;24.84;28.59
60019;BME280;45870;42.528;26.740;2023-04-22T05:10:11;99525.09;;;23.49;31.54
60019;BME280;45870;42.528;26.740;2023-04-22T05:12:37;99530.00;;;21.45;35.32
60019;BME280;45870;42.528;26.740;2023-04-22T05:15:03;99525.16;;;21.86;34.14
60019;BME280;45870;42.528;26.740;2023-04-22T05:17:29;99525.28;;;19.76;37.80
60019;BME280;45870;42.528;26.740;2023-04-22T05:19:55;99525.09;;;19.12;39.63
60019;BME280;45870;42.528;26.740;2023-04-22T05:22:20;99520.69;;;19.72;38.74
60019;BME280;45870;42.528;26.740;2023-04-22T05:24:46;99526.69;;;21.07;37.49
60019;BME280;45870;42.528;26.740;2023-04-22T05:27:12;99530.88;;;22.42;33.95
60019;BME280;45870;42.528;26.740;2023-04-22T05:29:37;99523.94;;;22.45;34.03
60019;BME280;45870;42.528;26.740;2023-04-22T05:32:03;99492.41;;;22.82;33.04
60019;BME280;45870;42.528;26.740;2023-04-22T05:34:29;99520.03;;;24.74;30.29
60019;BME280;45870;42.528;26.740;2023-04-22T05:36:54;99519.88;;;24.07;30.61
60019;BME280;45870;42.528;26.740;2023-04-22T05:39:20;99521.22;;;23.41;32.51
60019;BME280;45870;42.528;26.740;2023-04-22T05:41:46;99529.00;;;23.48;31.88
60019;BME280;45870;42.528;26.740;2023-04-22T05:44:11;99537.81;;;23.19;33.04
60019;BME280;45870;42.528;26.740;2023-04-22T05:46:37;99536.44;;;22.90;34.16
60019;BME280;45870;42.528;26.740;2023-04-22T05:49:03;99510.88;;;21.39;35.80
60019;BME280;45870;42.528;26.740;2023-04-22T05:51:29;99532.53;;;22.52;34.56
60019;BME280;45870;42.528;26.740;2023-04-22T05:53:55;99536.25;;;22.78;34.28
60019;BME280;45870;42.528;26.740;2023-04-22T05:56:21;99533.13;;;21.87;35.99
60019;BME280;45870;42.528;26.740;2023-04-22T05:58:46;99541.31;;;22.54;35.91
60019;BME280;45870;42.528;26.740;2023-04-22T06:01:12;99542.16;;;21.66;38.05
60019;BME280;45870;42.528;26.740;2023-04-22T06:03:38;99546.34;;;21.63;37.84
60019;BME280;45870;42.528;26.740;2023-04-22T06:06:04;99548.22;;;22.21;36.54
60019;BME280;45870;42.528;26.740;2023-04-22T06:08:30;99500.69;;;22.51;35.45
60019;BME280;45870;42.528;26.740;2023-04-22T06:10:56;99547.84;;;22.14;36.07
60019;BME280;45870;42.528;26.740;2023-04-22T06:13:22;99544.56;;;23.52;35.31
60019;BME280;45870;42.528;26.740;2023-04-22T06:15:48;99545.19;;;24.26;33.34
60019;BME280;45870;42.528;26.740;2023-04-22T06:18:14;99550.84;;;22.57;35.75
60019;BME280;45870;42.528;26.740;2023-04-22T06:20:39;99547.81;;;23.88;34.37
60019;BME280;45870;42.528;26.740;2023-04-22T06:23:05;99549.94;;;22.30;36.65
60019;BME280;45870;42.528;26.740;2023-04-22T06:25:33;99558.19;;;24.72;33.16
60019;BME280;45870;42.528;26.740;2023-04-22T06:27:59;99512.84;;;24.82;32.44
60019;BME280;45870;42.528;26.740;2023-04-22T06:30:25;99563.56;;;25.65;31.07
60019;BME280;45870;42.528;26.740;2023-04-22T06:32:51;99564.44;;;24.52;33.25
60019;BME280;45870;42.528;26.740;2023-04-22T06:35:19;99577.72;;;22.82;37.70
60019;BME280;45870;42.528;26.740;2023-04-22T06:37:46;99570.19;;;24.13;35.63
60019;BME280;45870;42.528;26.740;2023-04-22T06:40:13;99574.91;;;23.13;36.54
60019;BME280;45870;42.528;26.740;2023-04-22T06:42:39;99580.91;;;22.00;38.77
60019;BME280;45870;42.528;26.740;2023-04-22T06:45:05;99583.84;;;22.48;37.36
60019;BME280;45870;42.528;26.740;2023-04-22T06:47:31;99560.41;;;21.84;39.34
60019;BME280;45870;42.528;26.740;2023-04-22T06:49:56;99548.25;;;22.52;37.21
60019;BME280;45870;42.528;26.740;2023-04-22T06:52:22;99587.81;;;20.39;43.54
60019;BME280;45870;42.528;26.740;2023-04-22T06:54:48;99598.06;;;22.72;37.00
60019;BME280;45870;42.528;26.740;2023-04-22T06:57:14;99602.06;;;22.97;37.73
60019;BME280;45870;42.528;26.740;2023-04-22T06:59:39;99592.28;;;22.29;39.38
60019;BME280;45870;42.528;26.740;2023-04-22T07:02:06;99603.00;;;23.32;37.20
60019;BME280;45870;42.528;26.740;2023-04-22T07:04:31;99603.16;;;23.35;36.11
60019;BME280;45870;42.528;26.740;2023-04-22T07:06:57;99597.09;;;24.07;34.98
60019;BME280;45870;42.528;26.740;2023-04-22T07:09:23;99603.06;;;25.87;31.92
60019;BME280;45870;42.528;26.740;2023-04-22T07:11:49;99600.41;;;23.35;38.18
60019;BME280;45870;42.528;26.740;2023-04-22T07:14:14;99599.88;;;23.81;36.42
60019;BME280;45870;42.528;26.740;2023-04-22T07:16:40;99610.72;;;23.95;35.46
60019;BME280;45870;42.528;26.740;2023-04-22T07:19:06;99596.44;;;24.10;34.88
60019;BME280;45870;42.528;26.740;2023-04-22T07:21:32;99612.66;;;23.69;37.53
60019;BME280;45870;42.528;26.740;2023-04-22T07:23:57;99616.06;;;23.74;37.53
60019;BME280;45870;42.528;26.740;2023-04-22T07:26:23;99579.63;;;22.73;39.32
60019;BME280;45870;42.528;26.740;2023-04-22T07:28:50;99581.63;;;22.59;38.64
60019;BME280;45870;42.528;26.740;2023-04-22T07:31:15;99627.56;;;23.68;38.08
60019;BME280;45870;42.528;26.740;2023-04-22T07:33:41;99577.56;;;20.44;44.29
60019;BME280;45870;42.528;26.740;2023-04-22T07:36:07;99623.75;;;22.46;39.96
60019;BME280;45870;42.528;26.740;2023-04-22T07:38:33;99605.75;;;23.40;36.77
60019;BME280;45870;42.528;26.740;2023-04-22T07:40:58;99625.16;;;22.12;40.01
60019;BME280;45870;42.528;26.740;2023-04-22T07:43:24;99622.28;;;23.40;37.34
60019;BME280;45870;42.528;26.740;2023-04-22T07:45:50;99632.75;;;21.16;41.22
60019;BME280;45870;42.528;26.740;2023-04-22T07:48:16;99618.34;;;23.89;36.33
60019;BME280;45870;42.528;26.740;2023-04-22T07:50:41;99635.34;;;23.83;37.74
60019;BME280;45870;42.528;26.740;2023-04-22T07:53:07;99581.34;;;25.97;32.66
60019;BME280;45870;42.528;26.740;2023-04-22T07:55:35;99503.97;;;22.00;37.17
60019;BME280;45870;42.528;26.740;2023-04-22T07:58:01;99634.44;;;26.53;31.06
60019;BME280;45870;42.528;26.740;2023-04-22T08:00:32;99634.31;;;22.74;39.17
60019;BME280;45870;42.528;26.740;2023-04-22T08:02:58;99621.75;;;29.24;27.46
60019;BME280;45870;42.528;26.740;2023-04-22T08:05:23;99630.97;;;23.82;37.06
60019;BME280;45870;42.528;26.740;2023-04-22T08:07:49;99627.88;;;21.76;42.09
60019;BME280;45870;42.528;26.740;2023-04-22T08:10:15;99639.38;;;23.60;38.81
60019;BME280;45870;42.528;26.740;2023-04-22T08:12:40;99625.81;;;23.98;37.69
60019;BME280;45870;42.528;26.740;2023-04-22T08:15:06;99604.28;;;21.12;42.86
60019;BME280;45870;42.528;26.740;2023-04-22T08:17:32;99628.28;;;21.20;43.07
60019;BME280;45870;42.528;26.740;2023-04-22T08:19:58;99627.03;;;23.49;38.72
60019;BME280;45870;42.528;26.740;2023-04-22T08:22:23;99627.78;;;22.93;40.62
60019;BME280;45870;42.528;26.740;2023-04-22T08:24:49;99626.69;;;23.02;37.99
60019;BME280;45870;42.528;26.740;2023-04-22T08:27:15;99578.94;;;22.45;40.08
60019;BME280;45870;42.528;26.740;2023-04-22T08:29:41;99622.13;;;25.29;34.66
60019;BME280;45870;42.528;26.740;2023-04-22T08:32:07;99624.41;;;21.98;40.77
60019;BME280;45870;42.528;26.740;2023-04-22T08:34:32;99627.84;;;23.49;38.91
60019;BME280;45870;42.528;26.740;2023-04-22T08:36:58;99619.41;;;24.83;36.38
60019;BME280;45870;42.528;26.740;2023-04-22T08:39:24;99583.09;;;22.34;41.14
60019;BME280;45870;42.528;26.740;2023-04-22T08:41:53;99618.75;;;25.24;35.05
60019;BME280;45870;42.528;26.740;2023-04-22T08:44:29;99611.97;;;26.13;34.03
60019;BME280;45870;42.528;26.740;2023-04-22T08:46:55;99625.88;;;26.46;32.43
60019;BME280;45870;42.528;26.740;2023-04-22T08:49:22;99611.66;;;23.65;37.39
60019;BME280;45870;42.528;26.740;2023-04-22T08:51:49;99628.84;;;22.30;38.94
60019;BME280;45870;42.528;26.740;2023-04-22T08:54:17;99618.00;;;24.00;36.17
60019;BME280;45870;42.528;26.740;2023-04-22T08:56:43;99617.94;;;26.23;32.36
60019;BME280;45870;42.528;26.740;2023-04-22T08:59:10;99632.75;;;27.54;29.27
60019;BME280;45870;42.528;26.740;2023-04-22T09:01:37;99620.41;;;25.16;33.93
60019;BME280;45870;42.528;26.740;2023-04-22T09:04:04;99572.66;;;21.15;40.95
60019;BME280;45870;42.528;26.740;2023-04-22T09:06:31;99590.31;;;24.13;35.96
60019;BME280;45870;42.528;26.740;2023-04-22T09:08:57;99499.22;;;27.27;29.42
60019;BME280;45870;42.528;26.740;2023-04-22T09:11:29;99624.44;;;25.57;31.71
60019;BME280;45870;42.528;26.740;2023-04-22T09:13:55;99621.63;;;27.90;29.40
60019;BME280;45870;42.528;26.740;2023-04-22T09:16:21;99621.38;;;24.57;34.95
60019;BME280;45870;42.528;26.740;2023-04-22T09:18:46;99626.97;;;25.03;33.94
60019;BME280;45870;42.528;26.740;2023-04-22T09:21:12;99611.53;;;23.96;35.48
60019;BME280;45870;42.528;26.740;2023-04-22T09:23:47;99609.56;;;23.14;38.06
60019;BME280;45870;42.528;26.740;2023-04-22T09:26:13;99610.28;;;26.41;31.97
60019;BME280;45870;42.528;26.740;2023-04-22T09:28:54;99611.06;;;25.00;32.48
60019;BME280;45870;42.528;26.740;2023-04-22T09:31:21;99611.13;;;26.99;29.98
60019;BME280;45870;42.528;26.740;2023-04-22T09:33:50;99603.66;;;28.83;27.95
60019;BME280;45870;42.528;26.740;2023-04-22T09:36:27;99552.66;;;26.67;30.87
60019;BME280;45870;42.528;26.740;2023-04-22T09:38:56;99610.91;;;25.84;33.13
60019;BME280;45870;42.528;26.740;2023-04-22T09:41:31;99605.03;;;26.27;30.77
60019;BME280;45870;42.528;26.740;2023-04-22T09:43:59;99596.34;;;27.31;30.34
60019;BME280;45870;42.528;26.740;2023-04-22T09:46:26;99599.19;;;28.51;28.05
60019;BME280;45870;42.528;26.740;2023-04-22T09:48:57;99603.47;;;31.11;25.56
60019;BME280;45870;42.528;26.740;2023-04-22T09:51:24;99599.78;;;30.62;24.55
60019;BME280;45870;42.528;26.740;2023-04-22T09:53:59;99549.38;;;27.10;27.88
60019;BME280;45870;42.528;26.740;2023-04-22T09:56:47;99594.09;;;28.53;28.67
60019;BME280;45870;42.528;26.740;2023-04-22T10:01:48;99586.97;;;28.12;27.46
60019;BME280;45870;42.528;26.740;2023-04-22T10:04:14;99586.66;;;27.25;30.62
60019;BME280;45870;42.528;26.740;2023-04-22T10:06:41;99583.47;;;26.21;31.59
60019;BME280;45870;42.528;26.740;2023-04-22T10:09:06;99577.53;;;26.43;30.13
60019;BME280;45870;42.528;26.740;2023-04-22T10:11:33;99583.66;;;26.49;31.07
60019;BME280;45870;42.528;26.740;2023-04-22T10:13:59;99569.84;;;25.95;28.60
60019;BME280;45870;42.528;26.740;2023-04-22T10:16:31;99568.03;;;26.32;29.75
60019;BME280;45870;42.528;26.740;2023-04-22T10:19:00;99558.28;;;28.20;26.78
60019;BME280;45870;42.528;26.740;2023-04-22T10:21:29;99554.78;;;27.07;29.20
60019;BME280;45870;42.528;26.740;2023-04-22T10:23:57;99560.88;;;25.57;31.94
60019;BME280;45870;42.528;26.740;2023-04-22T10:26:41;99544.88;;;27.82;30.28
60019;BME280;45870;42.528;26.740;2023-04-22T10:29:12;99552.53;;;25.07;29.00
60019;BME280;45870;42.528;26.740;2023-04-22T10:31:38;99548.44;;;24.83;28.95
60019;BME280;45870;42.528;26.740;2023-04-22T10:34:12;99547.75;;;26.40;28.77
60019;BME280;45870;42.528;26.740;2023-04-22T10:36:59;99547.19;;;26.47;27.64
60019;BME280;45870;42.528;26.740;2023-04-22T10:39:26;99544.88;;;26.94;26.42
60019;BME280;45870;42.528;26.740;2023-04-22T10:42:11;99536.31;;;26.99;25.89
60019;BME280;45870;42.528;26.740;2023-04-22T10:44:50;99541.28;;;25.41;31.42
60019;BME280;45870;42.528;26.740;2023-04-22T10:49:50;99538.59;;;24.57;29.23
60019;BME280;45870;42.528;26.740;2023-04-22T10:52:29;99532.78;;;26.08;27.99
60019;BME280;45870;42.528;26.740;2023-04-22T10:54:56;99531.47;;;25.52;26.43
60019;BME280;45870;42.528;26.740;2023-04-22T10:57:28;99533.91;;;24.95;30.60
60019;BME280;45870;42.528;26.740;2023-04-22T11:00:00;99369.75;;;24.34;27.50
60019;BME280;45870;42.528;26.740;2023-04-22T11:02:25;99525.38;;;24.42;29.09
60019;BME280;45870;42.528;26.740;2023-04-22T11:05:18;99524.31;;;26.25;24.96
60019;BME280;45870;42.528;26.740;2023-04-22T11:07:47;99524.38;;;25.43;28.09
60019;BME280;45870;42.528;26.740;2023-04-22T11:10:30;99524.25;;;26.46;29.75
60019;BME280;45870;42.528;26.740;2023-04-22T11:12:56;99523.03;;;25.19;28.88
60019;BME280;45870;42.528;26.740;2023-04-22T11:15:22;99520.78;;;25.51;30.21
60019;BME280;45870;42.528;26.740;2023-04-22T11:17:52;99525.22;;;26.62;26.40
60019;BME280;45870;42.528;26.740;2023-04-22T11:20:19;99518.28;;;28.21;23.48
60019;BME280;45870;42.528;26.740;2023-04-22T11:22:47;99525.28;;;27.63;26.38
60019;BME280;45870;42.528;26.740;2023-04-22T11:25:13;99520.69;;;26.46;25.41
60019;BME280;45870;42.528;26.740;2023-04-22T11:27:40;99383.88;;;26.10;26.98
60019;BME280;45870;42.528;26.740;2023-04-22T11:30:13;99519.91;;;26.81;26.09
60019;BME280;45870;42.528;26.740;2023-04-22T11:32:50;99516.03;;;25.72;28.71
60019;BME280;45870;42.528;26.740;2023-04-22T11:35:21;99520.09;;;25.54;30.85
60019;BME280;45870;42.528;26.740;2023-04-22T11:37:59;99519.69;;;25.97;27.19
60019;BME280;45870;42.528;26.740;2023-04-22T11:40:33;99510.78;;;26.69;26.73
60019;BME280;45870;42.528;26.740;2023-04-22T11:43:01;99516.63;;;25.36;26.98
60019;BME280;45870;42.528;26.740;2023-04-22T11:45:29;99509.13;;;26.31;26.51
60019;BME280;45870;42.528;26.740;2023-04-22T11:47:55;99519.13;;;26.81;28.06
60019;BME280;45870;42.528;26.740;2023-04-22T11:50:31;99520.84;;;26.73;28.81
60019;BME280;45870;42.528;26.740;2023-04-22T11:55:40;99505.81;;;26.38;31.40
60019;BME280;45870;42.528;26.740;2023-04-22T12:00:41;99524.81;;;25.74;31.58
60019;BME280;45870;42.528;26.740;2023-04-22T12:03:18;99517.22;;;25.83;27.73
60019;BME280;45870;42.528;26.740;2023-04-22T12:05:46;99493.69;;;25.15;31.00
60019;BME280;45870;42.528;26.740;2023-04-22T12:08:17;99512.81;;;25.20;30.20
60019;BME280;45870;42.528;26.740;2023-04-22T12:10:49;99514.84;;;25.31;31.94
60019;BME280;45870;42.528;26.740;2023-04-22T12:13:28;99523.25;;;25.14;34.26
60019;BME280;45870;42.528;26.740;2023-04-22T12:16:02;99509.00;;;24.28;32.79
60019;BME280;45870;42.528;26.740;2023-04-22T12:18:33;99447.59;;;23.76;32.45
60019;BME280;45870;42.528;26.740;2023-04-22T12:21:07;99521.41;;;22.57;34.20
60019;BME280;45870;42.528;26.740;2023-04-22T12:23:42;99520.66;;;23.13;36.49
60019;BME280;45870;42.528;26.740;2023-04-22T12:26:09;99520.69;;;22.12;35.27
60019;BME280;45870;42.528;26.740;2023-04-22T12:28:36;99474.72;;;21.60;36.19
60019;BME280;45870;42.528;26.740;2023-04-22T12:31:02;99534.91;;;21.70;39.68
60019;BME280;45870;42.528;26.740;2023-04-22T12:33:28;99520.13;;;21.43;38.29
60019;BME280;45870;42.528;26.740;2023-04-22T12:35:54;99530.47;;;20.83;41.97
60019;BME280;45870;42.528;26.740;2023-04-22T12:38:19;99529.03;;;21.00;41.57
60019;BME280;45870;42.528;26.740;2023-04-22T12:40:45;99533.41;;;21.01;41.22
60019;BME280;45870;42.528;26.740;2023-04-22T12:43:11;99535.19;;;21.32;39.69
60019;BME280;45870;42.528;26.740;2023-04-22T12:45:36;99539.09;;;20.90;40.16
60019;BME280;45870;42.528;26.740;2023-04-22T12:48:02;99518.63;;;19.96;42.82
60019;BME280;45870;42.528;26.740;2023-04-22T12:50:28;99518.44;;;19.74;41.54
60019;BME280;45870;42.528;26.740;2023-04-22T12:52:54;99541.13;;;19.00;42.87
60019;BME280;45870;42.528;26.740;2023-04-22T12:55:20;99527.44;;;19.42;41.10
60019;BME280;45870;42.528;26.740;2023-04-22T12:57:48;99505.69;;;20.02;39.28
60019;BME280;45870;42.528;26.740;2023-04-22T13:00:14;99529.34;;;20.98;39.23